sensor_id;sensor_type;location;lat;lon;timestamp;pressure;altitude;pressure_sealevel;temperature;humidity
13952;BME280;39535;52.192;9.886;2023-12-20T00:00:19;99783.47;;;8.02;100.00
13952;BME280;39535;52.192;9.886;2023-12-20T00:02:46;99768.97;;;8.33;100.00
13952;BME280;39535;52.192;9.886;2023-12-20T00:05:13;99779.34;;;8.33;100.00
13952;BME280;39535;52.192;9.886;2023-12-20T00:07:39;99771.88;;;8.16;100.00
13952;BME280;39535;52.192;9.886;2023-12-20T00:10:06;99751.81;;;8.25;100.00
13952;BME280;39535;52.192;9.886;2023-12-20T00:12:33;99754.25;;;7.89;100.00
13952;BME280;39535;52.192;9.886;2023-12-20T00:15:01;99724.81;;;7.87;100.00
13952;BME280;39535;52.192;9.886;2023-12-20T00:17:27;99717.41;;;8.10;100.00
13952;BME280;39535;52.192;9.886;2023-12-20T00:19:53;99727.00;;;8.08;100.00
13952;BME280;39535;52.192;9.886;2023-12-20T00:22:20;99724.28;;;8.14;100.00
13952;BME280;39535;52.192;9.886;2023-12-20T00:24:46;99721.47;;;7.82;100.00
13952;BME280;39535;52.192;9.886;2023-12-20T00:27:12;99709.34;;;7.81;100.00
13952;BME280;39535;52.192;9.886;2023-12-20T00:29:39;99701.22;;;7.52;100.00
13952;BME280;39535;52.192;9.886;2023-12-20T00:32:09;99699.41;;;7.58;100.00
13952;BME280;39535;52.192;9.886;2023-12-20T00:34:35;99704.63;;;7.56;100.00
13952;BME280;39535;52.192;9.886;2023-12-20T00:37:02;99710.75;;;7.53;100.00
13952;BME280;39535;52.192;9.886;2023-12-20T00:39:28;99733.06;;;7.65;100.00
13952;BME280;39535;52.192;9.886;2023-12-20T00:41:54;99771.09;;;7.66;100.00
13952;BME280;39535;52.192;9.886;2023-12-20T00:44:21;99783.63;;;7.43;100.00
13952;BME280;39535;52.192;9.886;2023-12-20T00:46:47;99815.41;;;7.59;100.00
13952;BME280;39535;52.192;9.886;2023-12-20T00:49:15;99841.09;;;7.75;100.00
13952;BME280;39535;52.192;9.886;2023-12-20T00:51:41;99865.91;;;7.39;100.00
13952;BME280;39535;52.192;9.886;2023-12-20T00:54:07;99870.97;;;7.47;100.00
13952;BME280;39535;52.192;9.886;2023-12-20T00:56:34;99885.72;;;7.46;100.00
13952;BME280;39535;52.192;9.886;2023-12-20T00:59:00;99900.53;;;7.40;100.00
13952;BME280;39535;52.192;9.886;2023-12-20T01:01:27;99903.25;;;7.32;100.00
13952;BME280;39535;52.192;9.886;2023-12-20T01:03:53;99893.19;;;7.07;100.00
13952;BME280;39535;52.192;9.886;2023-12-20T01:06:22;99874.81;;;7.23;100.00
13952;BME280;39535;52.192;9.886;2023-12-20T01:08:48;99883.59;;;7.14;100.00
13952;BME280;39535;52.192;9.886;2023-12-20T01:11:15;99872.28;;;7.20;100.00
13952;BME280;39535;52.192;9.886;2023-12-20T01:13:41;99876.72;;;7.10;100.00
13952;BME280;39535;52.192;9.886;2023-12-20T01:16:10;99899.19;;;7.12;100.00
13952;BME280;39535;52.192;9.886;2023-12-20T01:18:37;99919.44;;;6.83;100.00
13952;BME280;39535;52.192;9.886;2023-12-20T01:21:07;99935.00;;;6.86;100.00
13952;BME280;39535;52.192;9.886;2023-12-20T01:23:35;99937.81;;;6.64;100.00
13952;BME280;39535;52.192;9.886;2023-12-20T01:26:01;99935.00;;;6.84;100.00
13952;BME280;39535;52.192;9.886;2023-12-20T01:28:29;99957.53;;;6.78;100.00
13952;BME280;39535;52.192;9.886;2023-12-20T01:30:55;99965.31;;;6.78;100.00
13952;BME280;39535;52.192;9.886;2023-12-20T01:33:22;99981.78;;;6.75;100.00
13952;BME280;39535;52.192;9.886;2023-12-20T01:35:48;99992.38;;;6.56;100.00
13952;BME280;39535;52.192;9.886;2023-12-20T01:38:14;99986.22;;;6.64;100.00
13952;BME280;39535;52.192;9.886;2023-12-20T01:40:45;99998.19;;;6.80;99.35
13952;BME280;39535;52.192;9.886;2023-12-20T01:43:11;100019.97;;;6.62;99.08
13952;BME280;39535;52.192;9.886;2023-12-20T01:45:37;100031.25;;;6.58;98.93
13952;BME280;39535;52.192;9.886;2023-12-20T01:48:05;100022.63;;;6.53;99.20
13952;BME280;39535;52.192;9.886;2023-12-20T01:50:32;100040.84;;;6.48;99.59
13952;BME280;39535;52.192;9.886;2023-12-20T01:53:01;100024.31;;;6.59;99.69
13952;BME280;39535;52.192;9.886;2023-12-20T01:55:31;100022.38;;;6.78;99.54
13952;BME280;39535;52.192;9.886;2023-12-20T01:58:00;100052.66;;;6.77;98.73
13952;BME280;39535;52.192;9.886;2023-12-20T02:00:27;100055.44;;;6.60;99.07
13952;BME280;39535;52.192;9.886;2023-12-20T02:02:55;100030.22;;;6.74;99.73
13952;BME280;39535;52.192;9.886;2023-12-20T02:05:22;100030.22;;;6.76;100.00
13952;BME280;39535;52.192;9.886;2023-12-20T02:07:48;100033.03;;;6.51;100.00
13952;BME280;39535;52.192;9.886;2023-12-20T02:10:15;100019.88;;;6.70;100.00
13952;BME280;39535;52.192;9.886;2023-12-20T02:12:42;100026.13;;;6.49;100.00
13952;BME280;39535;52.192;9.886;2023-12-20T02:15:10;100014.03;;;6.49;100.00
13952;BME280;39535;52.192;9.886;2023-12-20T02:17:36;100011.34;;;6.59;100.00
13952;BME280;39535;52.192;9.886;2023-12-20T02:20:05;100013.09;;;6.58;100.00
13952;BME280;39535;52.192;9.886;2023-12-20T02:22:33;100017.31;;;6.68;99.93
13952;BME280;39535;52.192;9.886;2023-12-20T02:25:00;100008.72;;;6.62;100.00
13952;BME280;39535;52.192;9.886;2023-12-20T02:27:27;100015.50;;;6.78;100.00
13952;BME280;39535;52.192;9.886;2023-12-20T02:29:54;100024.28;;;6.63;100.00
13952;BME280;39535;52.192;9.886;2023-12-20T02:32:20;100020.53;;;6.92;99.27
13952;BME280;39535;52.192;9.886;2023-12-20T02:34:48;100020.63;;;6.83;99.13
13952;BME280;39535;52.192;9.886;2023-12-20T02:37:14;100023.16;;;6.87;98.38
13952;BME280;39535;52.192;9.886;2023-12-20T02:39:42;100019.84;;;6.76;98.45
13952;BME280;39535;52.192;9.886;2023-12-20T02:42:09;100033.69;;;6.73;96.36
13952;BME280;39535;52.192;9.886;2023-12-20T02:44:35;100043.19;;;6.73;96.43
13952;BME280;39535;52.192;9.886;2023-12-20T02:47:01;100076.06;;;6.69;94.81
13952;BME280;39535;52.192;9.886;2023-12-20T02:49:28;100103.75;;;6.70;95.41
13952;BME280;39535;52.192;9.886;2023-12-20T02:51:54;100108.22;;;6.54;94.71
13952;BME280;39535;52.192;9.886;2023-12-20T02:54:21;100113.53;;;6.31;94.12
13952;BME280;39535;52.192;9.886;2023-12-20T02:56:48;100117.06;;;6.20;94.67
13952;BME280;39535;52.192;9.886;2023-12-20T02:59:15;100101.63;;;6.04;95.28
13952;BME280;39535;52.192;9.886;2023-12-20T03:01:42;100078.22;;;6.18;96.31
13952;BME280;39535;52.192;9.886;2023-12-20T03:04:08;100088.66;;;6.09;95.32
13952;BME280;39535;52.192;9.886;2023-12-20T03:06:35;100104.13;;;6.20;93.67
13952;BME280;39535;52.192;9.886;2023-12-20T03:09:01;100112.75;;;6.23;94.17
13952;BME280;39535;52.192;9.886;2023-12-20T03:11:28;100129.19;;;6.16;93.47
13952;BME280;39535;52.192;9.886;2023-12-20T03:13:56;100129.25;;;6.07;92.48
13952;BME280;39535;52.192;9.886;2023-12-20T03:16:23;100137.81;;;6.20;91.57
13952;BME280;39535;52.192;9.886;2023-12-20T03:18:49;100168.09;;;6.08;90.95
13952;BME280;39535;52.192;9.886;2023-12-20T03:21:16;100168.88;;;6.29;90.88
13952;BME280;39535;52.192;9.886;2023-12-20T03:23:42;100176.66;;;6.27;90.80
13952;BME280;39535;52.192;9.886;2023-12-20T03:26:09;100188.75;;;6.22;90.43
13952;BME280;39535;52.192;9.886;2023-12-20T03:28:36;100183.56;;;6.24;91.83
13952;BME280;39535;52.192;9.886;2023-12-20T03:31:04;100162.84;;;6.22;92.58
13952;BME280;39535;52.192;9.886;2023-12-20T03:33:30;100142.19;;;6.14;93.50
13952;BME280;39535;52.192;9.886;2023-12-20T03:35:56;100140.41;;;6.20;91.74
13952;BME280;39535;52.192;9.886;2023-12-20T03:38:23;100131.72;;;6.24;91.99
13952;BME280;39535;52.192;9.886;2023-12-20T03:40:49;100113.63;;;6.19;92.46
13952;BME280;39535;52.192;9.886;2023-12-20T03:43:16;100111.91;;;6.18;92.61
13952;BME280;39535;52.192;9.886;2023-12-20T03:45:42;100122.22;;;6.29;91.34
13952;BME280;39535;52.192;9.886;2023-12-20T03:48:10;100128.09;;;6.52;91.57
13952;BME280;39535;52.192;9.886;2023-12-20T03:50:37;100139.44;;;6.36;91.41
13952;BME280;39535;52.192;9.886;2023-12-20T03:53:03;100134.31;;;6.24;92.83
13952;BME280;39535;52.192;9.886;2023-12-20T03:55:30;100120.38;;;6.43;93.09
13952;BME280;39535;52.192;9.886;2023-12-20T03:57:56;100108.16;;;6.57;92.95
13952;BME280;39535;52.192;9.886;2023-12-20T04:00:22;100104.81;;;6.42;92.24
13952;BME280;39535;52.192;9.886;2023-12-20T04:02:49;100100.50;;;6.44;92.83
13952;BME280;39535;52.192;9.886;2023-12-20T04:05:16;100107.41;;;6.43;92.86
13952;BME280;39535;52.192;9.886;2023-12-20T04:07:43;100112.69;;;6.26;92.79
13952;BME280;39535;52.192;9.886;2023-12-20T04:10:09;100101.53;;;6.23;93.27
13952;BME280;39535;52.192;9.886;2023-12-20T04:12:35;100082.31;;;6.48;93.44
13952;BME280;39535;52.192;9.886;2023-12-20T04:15:02;100088.34;;;6.50;92.79
13952;BME280;39535;52.192;9.886;2023-12-20T04:17:34;100098.63;;;6.60;91.31
13952;BME280;39535;52.192;9.886;2023-12-20T04:20:00;100100.47;;;6.47;91.89
13952;BME280;39535;52.192;9.886;2023-12-20T04:22:28;100121.22;;;6.44;91.27
13952;BME280;39535;52.192;9.886;2023-12-20T04:24:54;100128.91;;;6.59;90.93
13952;BME280;39535;52.192;9.886;2023-12-20T04:27:21;100131.34;;;6.78;90.08
13952;BME280;39535;52.192;9.886;2023-12-20T04:29:47;100156.53;;;6.66;89.77
13952;BME280;39535;52.192;9.886;2023-12-20T04:32:13;100153.78;;;6.83;89.15
13952;BME280;39535;52.192;9.886;2023-12-20T04:34:40;100161.53;;;6.88;89.34
13952;BME280;39535;52.192;9.886;2023-12-20T04:37:06;100178.94;;;6.73;89.44
13952;BME280;39535;52.192;9.886;2023-12-20T04:39:34;100182.50;;;6.60;89.76
13952;BME280;39535;52.192;9.886;2023-12-20T04:42:01;100159.06;;;6.74;90.33
13952;BME280;39535;52.192;9.886;2023-12-20T04:44:27;100156.53;;;6.65;90.34
13952;BME280;39535;52.192;9.886;2023-12-20T04:46:53;100142.72;;;6.61;91.16
13952;BME280;39535;52.192;9.886;2023-12-20T04:49:21;100133.00;;;6.88;89.92
13952;BME280;39535;52.192;9.886;2023-12-20T04:51:48;100140.97;;;6.65;90.62
13952;BME280;39535;52.192;9.886;2023-12-20T04:54:14;100141.88;;;6.62;90.28
13952;BME280;39535;52.192;9.886;2023-12-20T04:56:42;100121.81;;;6.80;90.83
13952;BME280;39535;52.192;9.886;2023-12-20T04:59:08;100133.91;;;6.81;89.69
13952;BME280;39535;52.192;9.886;2023-12-20T05:01:35;100140.78;;;6.88;89.68
13952;BME280;39535;52.192;9.886;2023-12-20T05:04:01;100134.75;;;6.84;90.37
13952;BME280;39535;52.192;9.886;2023-12-20T05:06:27;100128.00;;;6.62;91.37
13952;BME280;39535;52.192;9.886;2023-12-20T05:08:54;100121.06;;;6.64;90.96
13952;BME280;39535;52.192;9.886;2023-12-20T05:11:20;100112.44;;;6.65;91.50
13952;BME280;39535;52.192;9.886;2023-12-20T05:13:48;100107.25;;;6.63;91.13
13952;BME280;39535;52.192;9.886;2023-12-20T05:16:14;100121.13;;;6.57;91.20
13952;BME280;39535;52.192;9.886;2023-12-20T05:18:43;100114.19;;;6.61;91.50
13952;BME280;39535;52.192;9.886;2023-12-20T05:21:09;100095.19;;;6.62;91.29
13952;BME280;39535;52.192;9.886;2023-12-20T05:23:35;100093.38;;;6.70;90.88
13952;BME280;39535;52.192;9.886;2023-12-20T05:26:02;100104.22;;;7.09;89.96
13952;BME280;39535;52.192;9.886;2023-12-20T05:28:28;100141.50;;;7.04;88.68
13952;BME280;39535;52.192;9.886;2023-12-20T05:30:56;100142.44;;;6.98;88.92
13952;BME280;39535;52.192;9.886;2023-12-20T05:33:23;100152.03;;;6.87;88.75
13952;BME280;39535;52.192;9.886;2023-12-20T05:35:50;100159.88;;;6.81;88.99
13952;BME280;39535;52.192;9.886;2023-12-20T05:38:16;100133.16;;;6.68;90.38
13952;BME280;39535;52.192;9.886;2023-12-20T05:40:42;100116.72;;;6.69;91.28
13952;BME280;39535;52.192;9.886;2023-12-20T05:43:09;100121.03;;;6.70;90.89
13952;BME280;39535;52.192;9.886;2023-12-20T05:45:35;100105.41;;;6.78;90.52
13952;BME280;39535;52.192;9.886;2023-12-20T05:48:04;100108.75;;;6.89;90.14
13952;BME280;39535;52.192;9.886;2023-12-20T05:50:30;100123.72;;;6.61;90.46
13952;BME280;39535;52.192;9.886;2023-12-20T05:52:56;100099.28;;;6.88;90.99
13952;BME280;39535;52.192;9.886;2023-12-20T05:55:23;100087.16;;;6.88;91.48
13952;BME280;39535;52.192;9.886;2023-12-20T05:57:49;100082.06;;;6.78;91.78
13952;BME280;39535;52.192;9.886;2023-12-20T06:00:16;100053.50;;;6.81;93.44
13952;BME280;39535;52.192;9.886;2023-12-20T06:02:43;100036.31;;;6.70;93.76
13952;BME280;39535;52.192;9.886;2023-12-20T06:05:11;100028.66;;;6.55;93.78
13952;BME280;39535;52.192;9.886;2023-12-20T06:07:37;100008.84;;;6.51;94.62
13952;BME280;39535;52.192;9.886;2023-12-20T06:10:04;100000.09;;;6.60;95.46
13952;BME280;39535;52.192;9.886;2023-12-20T06:12:31;100001.75;;;6.67;95.40
13952;BME280;39535;52.192;9.886;2023-12-20T06:14:58;100000.00;;;6.69;95.19
13952;BME280;39535;52.192;9.886;2023-12-20T06:17:25;99979.47;;;6.46;96.30
13952;BME280;39535;52.192;9.886;2023-12-20T06:19:51;99977.00;;;6.35;96.10
13952;BME280;39535;52.192;9.886;2023-12-20T06:22:19;99974.34;;;6.41;96.19
13952;BME280;39535;52.192;9.886;2023-12-20T06:24:45;99985.41;;;6.60;95.12
13952;BME280;39535;52.192;9.886;2023-12-20T06:27:11;99995.75;;;6.63;94.03
13952;BME280;39535;52.192;9.886;2023-12-20T06:29:38;100008.72;;;6.62;93.56
13952;BME280;39535;52.192;9.886;2023-12-20T06:32:06;100019.00;;;6.71;92.30
13952;BME280;39535;52.192;9.886;2023-12-20T06:34:32;100022.50;;;6.67;92.19
13952;BME280;39535;52.192;9.886;2023-12-20T06:36:58;100018.97;;;6.75;93.23
13952;BME280;39535;52.192;9.886;2023-12-20T06:39:26;100014.72;;;6.68;93.29
13952;BME280;39535;52.192;9.886;2023-12-20T06:41:53;99993.28;;;6.51;95.36
13952;BME280;39535;52.192;9.886;2023-12-20T06:44:19;99994.13;;;6.53;95.35
13952;BME280;39535;52.192;9.886;2023-12-20T06:46:46;99964.97;;;6.29;96.31
13952;BME280;39535;52.192;9.886;2023-12-20T06:49:12;99952.69;;;6.47;96.45
13952;BME280;39535;52.192;9.886;2023-12-20T06:51:38;99949.34;;;6.35;97.81
13952;BME280;39535;52.192;9.886;2023-12-20T06:54:05;99919.91;;;6.41;98.15
13952;BME280;39535;52.192;9.886;2023-12-20T06:56:33;99924.38;;;6.25;97.80
13952;BME280;39535;52.192;9.886;2023-12-20T06:58:59;99924.19;;;6.44;96.83
13952;BME280;39535;52.192;9.886;2023-12-20T07:01:26;99936.31;;;6.45;96.36
13952;BME280;39535;52.192;9.886;2023-12-20T07:03:52;99922.44;;;6.47;97.43
13952;BME280;39535;52.192;9.886;2023-12-20T07:06:18;99915.69;;;6.32;98.20
13952;BME280;39535;52.192;9.886;2023-12-20T07:08:45;99900.16;;;6.31;98.72
13952;BME280;39535;52.192;9.886;2023-12-20T07:11:12;99889.84;;;6.23;97.56
13952;BME280;39535;52.192;9.886;2023-12-20T07:13:39;99901.00;;;6.31;96.45
13952;BME280;39535;52.192;9.886;2023-12-20T07:16:06;99927.78;;;6.32;96.09
13952;BME280;39535;52.192;9.886;2023-12-20T07:18:33;99945.13;;;6.24;94.50
13952;BME280;39535;52.192;9.886;2023-12-20T07:20:59;99984.91;;;6.21;93.09
13952;BME280;39535;52.192;9.886;2023-12-20T07:23:25;99982.06;;;6.46;93.28
13952;BME280;39535;52.192;9.886;2023-12-20T07:25:52;100003.03;;;6.23;92.66
13952;BME280;39535;52.192;9.886;2023-12-20T07:28:18;100020.16;;;6.39;91.83
13952;BME280;39535;52.192;9.886;2023-12-20T07:30:46;100035.75;;;6.36;92.10
13952;BME280;39535;52.192;9.886;2023-12-20T07:33:12;100061.63;;;6.42;90.58
13952;BME280;39535;52.192;9.886;2023-12-20T07:35:39;100071.91;;;6.50;90.21
13952;BME280;39535;52.192;9.886;2023-12-20T07:38:05;100078.72;;;6.65;90.31
13952;BME280;39535;52.192;9.886;2023-12-20T07:40:31;100090.91;;;6.52;90.80
13952;BME280;39535;52.192;9.886;2023-12-20T07:42:58;100096.19;;;6.43;90.64
13952;BME280;39535;52.192;9.886;2023-12-20T07:45:24;100094.41;;;6.48;91.21
13952;BME280;39535;52.192;9.886;2023-12-20T07:47:52;100084.81;;;6.57;91.55
13952;BME280;39535;52.192;9.886;2023-12-20T07:50:18;100082.94;;;6.76;90.87
13952;BME280;39535;52.192;9.886;2023-12-20T07:52:45;100076.91;;;6.73;90.16
13952;BME280;39535;52.192;9.886;2023-12-20T07:55:11;100081.91;;;6.94;90.86
13952;BME280;39535;52.192;9.886;2023-12-20T07:57:37;100101.88;;;6.88;89.36
13952;BME280;39535;52.192;9.886;2023-12-20T08:00:05;100116.63;;;6.81;89.32
13952;BME280;39535;52.192;9.886;2023-12-20T08:02:31;100122.69;;;6.79;89.57
13952;BME280;39535;52.192;9.886;2023-12-20T08:04:59;100108.06;;;6.70;89.92
13952;BME280;39535;52.192;9.886;2023-12-20T08:07:25;100110.69;;;6.64;89.98
13952;BME280;39535;52.192;9.886;2023-12-20T08:09:52;100087.03;;;7.01;89.97
13952;BME280;39535;52.192;9.886;2023-12-20T08:12:20;100094.09;;;6.85;89.91
13952;BME280;39535;52.192;9.886;2023-12-20T08:14:46;100099.53;;;6.59;90.81
13952;BME280;39535;52.192;9.886;2023-12-20T08:17:12;100101.19;;;6.66;90.30
13952;BME280;39535;52.192;9.886;2023-12-20T08:19:41;100083.78;;;6.77;90.16
13952;BME280;39535;52.192;9.886;2023-12-20T08:22:09;100075.81;;;6.97;90.66
13952;BME280;39535;52.192;9.886;2023-12-20T08:24:35;100094.97;;;6.85;90.17
13952;BME280;39535;52.192;9.886;2023-12-20T08:27:01;100101.94;;;6.77;90.28
13952;BME280;39535;52.192;9.886;2023-12-20T08:29:28;100100.25;;;6.73;90.28
13952;BME280;39535;52.192;9.886;2023-12-20T08:31:55;100101.03;;;6.83;89.56
13952;BME280;39535;52.192;9.886;2023-12-20T08:34:22;100097.78;;;6.56;91.98
13952;BME280;39535;52.192;9.886;2023-12-20T08:36:48;100038.00;;;6.74;93.10
13952;BME280;39535;52.192;9.886;2023-12-20T08:39:16;100026.78;;;6.74;93.21
13952;BME280;39535;52.192;9.886;2023-12-20T08:41:42;100031.94;;;6.75;92.19
13952;BME280;39535;52.192;9.886;2023-12-20T08:44:09;100027.56;;;6.82;91.05
13952;BME280;39535;52.192;9.886;2023-12-20T08:46:36;100036.06;;;6.93;91.49
13952;BME280;39535;52.192;9.886;2023-12-20T08:49:02;100021.47;;;6.86;90.83
13952;BME280;39535;52.192;9.886;2023-12-20T08:51:29;100022.94;;;7.07;91.13
13952;BME280;39535;52.192;9.886;2023-12-20T08:53:55;100040.31;;;7.01;89.32
13952;BME280;39535;52.192;9.886;2023-12-20T08:56:23;100035.81;;;7.16;89.77
13952;BME280;39535;52.192;9.886;2023-12-20T08:58:49;100060.06;;;7.15;88.76
13952;BME280;39535;52.192;9.886;2023-12-20T09:01:16;100068.63;;;7.22;88.67
13952;BME280;39535;52.192;9.886;2023-12-20T09:03:42;100057.56;;;7.08;89.35
13952;BME280;39535;52.192;9.886;2023-12-20T09:06:09;100055.00;;;7.03;89.51
13952;BME280;39535;52.192;9.886;2023-12-20T09:08:35;100040.41;;;6.93;90.74
13952;BME280;39535;52.192;9.886;2023-12-20T09:11:02;100040.16;;;7.16;91.11
13952;BME280;39535;52.192;9.886;2023-12-20T09:13:30;99996.88;;;7.18;92.52
13952;BME280;39535;52.192;9.886;2023-12-20T09:15:57;99998.81;;;6.97;92.59
13952;BME280;39535;52.192;9.886;2023-12-20T09:18:24;99976.28;;;7.06;92.82
13952;BME280;39535;52.192;9.886;2023-12-20T09:20:50;99972.00;;;6.99;93.10
13952;BME280;39535;52.192;9.886;2023-12-20T09:23:17;99959.06;;;6.95;92.28
13952;BME280;39535;52.192;9.886;2023-12-20T09:25:43;99979.09;;;6.84;91.31
13952;BME280;39535;52.192;9.886;2023-12-20T09:28:10;99968.53;;;7.00;91.50
13952;BME280;39535;52.192;9.886;2023-12-20T09:30:37;99974.53;;;7.03;91.13
13952;BME280;39535;52.192;9.886;2023-12-20T09:33:05;99975.38;;;7.08;91.07
13952;BME280;39535;52.192;9.886;2023-12-20T09:35:32;99995.97;;;7.21;90.17
13952;BME280;39535;52.192;9.886;2023-12-20T09:37:58;100011.59;;;7.18;89.74
13952;BME280;39535;52.192;9.886;2023-12-20T09:40:26;100032.56;;;6.99;88.76
13952;BME280;39535;52.192;9.886;2023-12-20T09:42:56;100015.78;;;7.28;89.71
13952;BME280;39535;52.192;9.886;2023-12-20T09:45:23;100004.56;;;7.26;89.07
13952;BME280;39535;52.192;9.886;2023-12-20T09:47:52;100036.50;;;7.31;87.55
13952;BME280;39535;52.192;9.886;2023-12-20T09:50:20;100038.06;;;7.46;87.82
13952;BME280;39535;52.192;9.886;2023-12-20T09:52:50;100053.84;;;7.27;87.98
13952;BME280;39535;52.192;9.886;2023-12-20T09:55:17;100044.28;;;7.32;87.77
13952;BME280;39535;52.192;9.886;2023-12-20T09:57:43;100063.19;;;7.45;86.26
13952;BME280;39535;52.192;9.886;2023-12-20T10:00:11;100079.66;;;7.41;85.70
13952;BME280;39535;52.192;9.886;2023-12-20T10:02:38;100090.78;;;7.52;85.84
13952;BME280;39535;52.192;9.886;2023-12-20T10:05:16;100093.41;;;7.51;85.84
13952;BME280;39535;52.192;9.886;2023-12-20T10:07:44;100095.44;;;7.26;85.40
13952;BME280;39535;52.192;9.886;2023-12-20T10:10:11;100102.06;;;7.50;86.28
13952;BME280;39535;52.192;9.886;2023-12-20T10:12:39;100070.75;;;7.61;86.23
13952;BME280;39535;52.192;9.886;2023-12-20T10:15:06;100063.16;;;7.47;86.84
13952;BME280;39535;52.192;9.886;2023-12-20T10:17:32;100093.38;;;7.52;86.11
13952;BME280;39535;52.192;9.886;2023-12-20T10:19:59;100090.75;;;7.55;86.26
13952;BME280;39535;52.192;9.886;2023-12-20T10:22:26;100070.00;;;7.52;86.55
13952;BME280;39535;52.192;9.886;2023-12-20T10:24:53;100055.16;;;7.62;87.09
13952;BME280;39535;52.192;9.886;2023-12-20T10:27:19;100052.47;;;7.71;86.76
13952;BME280;39535;52.192;9.886;2023-12-20T10:29:46;100048.44;;;7.47;86.79
13952;BME280;39535;52.192;9.886;2023-12-20T10:32:22;100034.63;;;7.45;88.21
13952;BME280;39535;52.192;9.886;2023-12-20T10:34:50;100008.59;;;7.48;88.96
13952;BME280;39535;52.192;9.886;2023-12-20T10:37:16;99970.47;;;7.50;88.21
13952;BME280;39535;52.192;9.886;2023-12-20T10:39:49;99979.84;;;7.61;87.78
13952;BME280;39535;52.192;9.886;2023-12-20T10:42:17;99989.41;;;7.59;87.68
13952;BME280;39535;52.192;9.886;2023-12-20T10:44:44;99993.53;;;7.73;87.70
13952;BME280;39535;52.192;9.886;2023-12-20T10:47:11;100003.22;;;7.61;87.81
13952;BME280;39535;52.192;9.886;2023-12-20T10:49:39;99988.53;;;7.60;88.89
13952;BME280;39535;52.192;9.886;2023-12-20T10:52:06;99984.00;;;7.74;88.39
13952;BME280;39535;52.192;9.886;2023-12-20T10:54:33;99978.28;;;7.50;89.32
13952;BME280;39535;52.192;9.886;2023-12-20T10:57:05;99965.38;;;7.44;89.80
13952;BME280;39535;52.192;9.886;2023-12-20T10:59:33;99958.50;;;7.42;89.32
13952;BME280;39535;52.192;9.886;2023-12-20T11:02:02;99933.16;;;7.58;89.96
13952;BME280;39535;52.192;9.886;2023-12-20T11:04:36;99927.16;;;7.54;89.63
13952;BME280;39535;52.192;9.886;2023-12-20T11:07:11;99927.16;;;7.52;90.65
13952;BME280;39535;52.192;9.886;2023-12-20T11:09:46;99918.59;;;7.47;90.32
13952;BME280;39535;52.192;9.886;2023-12-20T11:12:20;99894.25;;;7.54;92.28
13952;BME280;39535;52.192;9.886;2023-12-20T11:14:51;99856.09;;;7.58;92.86
13952;BME280;39535;52.192;9.886;2023-12-20T11:17:19;99832.22;;;7.34;95.22
13952;BME280;39535;52.192;9.886;2023-12-20T11:20:05;99768.44;;;7.20;97.77
13952;BME280;39535;52.192;9.886;2023-12-20T11:22:33;99740.06;;;7.09;99.27
13952;BME280;39535;52.192;9.886;2023-12-20T11:25:03;99727.06;;;7.10;100.00
13952;BME280;39535;52.192;9.886;2023-12-20T11:27:33;99682.97;;;7.09;100.00
13952;BME280;39535;52.192;9.886;2023-12-20T11:29:59;99658.50;;;6.72;100.00
13952;BME280;39535;52.192;9.886;2023-12-20T11:32:29;99628.72;;;6.95;100.00
13952;BME280;39535;52.192;9.886;2023-12-20T11:34:56;99616.97;;;7.24;100.00
13952;BME280;39535;52.192;9.886;2023-12-20T11:37:29;99638.31;;;6.90;100.00
13952;BME280;39535;52.192;9.886;2023-12-20T11:40:00;99622.53;;;7.02;100.00
13952;BME280;39535;52.192;9.886;2023-12-20T11:42:27;99611.13;;;7.11;100.00
13952;BME280;39535;52.192;9.886;2023-12-20T11:44:55;99610.22;;;7.13;100.00
13952;BME280;39535;52.192;9.886;2023-12-20T11:47:22;99621.72;;;6.99;100.00
13952;BME280;39535;52.192;9.886;2023-12-20T11:49:48;99605.91;;;7.14;100.00
13952;BME280;39535;52.192;9.886;2023-12-20T11:52:16;99619.06;;;7.03;100.00
13952;BME280;39535;52.192;9.886;2023-12-20T11:54:42;99629.41;;;7.05;100.00
13952;BME280;39535;52.192;9.886;2023-12-20T11:57:09;99621.06;;;6.87;100.00
13952;BME280;39535;52.192;9.886;2023-12-20T11:59:36;99598.28;;;7.03;100.00
13952;BME280;39535;52.192;9.886;2023-12-20T12:02:04;99593.19;;;7.00;100.00
13952;BME280;39535;52.192;9.886;2023-12-20T12:08:06;99617.56;;;6.90;100.00
13952;BME280;39535;52.192;9.886;2023-12-20T12:10:32;99685.44;;;7.16;100.00
13952;BME280;39535;52.192;9.886;2023-12-20T12:13:23;99723.44;;;6.65;99.29
13952;BME280;39535;52.192;9.886;2023-12-20T12:15:55;99733.72;;;6.04;100.00
13952;BME280;39535;52.192;9.886;2023-12-20T12:18:26;99693.00;;;5.38;100.00
13952;BME280;39535;52.192;9.886;2023-12-20T12:21:00;99640.53;;;5.21;100.00
13952;BME280;39535;52.192;9.886;2023-12-20T12:23:34;99628.72;;;4.95;100.00
13952;BME280;39535;52.192;9.886;2023-12-20T12:26:03;99603.97;;;4.68;100.00
13952;BME280;39535;52.192;9.886;2023-12-20T12:28:37;99572.91;;;4.69;100.00
13952;BME280;39535;52.192;9.886;2023-12-20T12:31:05;99540.16;;;4.71;100.00
13952;BME280;39535;52.192;9.886;2023-12-20T12:33:33;99542.97;;;4.45;100.00
13952;BME280;39535;52.192;9.886;2023-12-20T12:36:05;99520.31;;;4.73;100.00
13952;BME280;39535;52.192;9.886;2023-12-20T12:38:41;99506.50;;;4.77;100.00
13952;BME280;39535;52.192;9.886;2023-12-20T12:41:15;99474.66;;;4.74;100.00
13952;BME280;39535;52.192;9.886;2023-12-20T12:43:41;99470.88;;;5.04;100.00
13952;BME280;39535;52.192;9.886;2023-12-20T12:46:08;99524.44;;;4.93;100.00
13952;BME280;39535;52.192;9.886;2023-12-20T12:48:36;99549.53;;;4.83;100.00
13952;BME280;39535;52.192;9.886;2023-12-20T12:51:02;99619.34;;;4.83;100.00
13952;BME280;39535;52.192;9.886;2023-12-20T12:53:29;99644.22;;;4.95;99.96
13952;BME280;39535;52.192;9.886;2023-12-20T12:55:55;99685.72;;;4.80;96.87
13952;BME280;39535;52.192;9.886;2023-12-20T12:58:27;99701.16;;;4.92;96.59
13952;BME280;39535;52.192;9.886;2023-12-20T13:00:55;99693.28;;;5.04;98.91
13952;BME280;39535;52.192;9.886;2023-12-20T13:03:22;99697.50;;;5.16;98.43
13952;BME280;39535;52.192;9.886;2023-12-20T13:06:00;99702.63;;;5.19;98.34